createdAt,value
2018-07-31T00:00:22.991Z,56.64
2018-07-31T00:01:22.996Z,56.54
2018-07-31T00:02:22.997Z,56.32
2018-07-31T00:03:23.025Z,56.61
2018-07-31T00:04:22.997Z,56.61
2018-07-31T00:05:22.997Z,58.65
2018-07-31T00:06:22.996Z,57.19
2018-07-31T00:07:22.999Z,57.39
2018-07-31T00:08:23.000Z,57.97
2018-07-31T00:09:23.002Z,57.68
2018-07-31T00:10:23.012Z,57.48
2018-07-31T00:11:23.001Z,57.97
2018-07-31T00:12:23.003Z,58.06
2018-07-31T00:13:23.005Z,58.16
2018-07-31T00:14:23.003Z,58.55
2018-07-31T00:15:23.005Z,58.65
2018-07-31T00:16:23.007Z,58.45
2018-07-31T00:17:23.008Z,58.36
2018-07-31T00:18:23.008Z,58.65
2018-07-31T00:19:23.009Z,58.65
2018-07-31T00:20:23.006Z,58.55
2018-07-31T00:21:23.009Z,59.81
2018-07-31T00:22:23.008Z,60.30
2018-07-31T00:23:23.011Z,59.81
2018-07-31T00:24:23.011Z,60.36
2018-07-31T00:25:23.013Z,60.36
2018-07-31T00:26:23.014Z,60.65
2018-07-31T00:27:23.011Z,60.46
2018-07-31T00:28:23.024Z,60.94
2018-07-31T00:29:23.016Z,61.72
2018-07-31T00:30:23.015Z,61.52
2018-07-31T00:31:23.016Z,62.30
2018-07-31T00:32:23.013Z,62.40
2018-07-31T00:33:23.016Z,62.40
2018-07-31T00:34:23.016Z,62.69
2018-07-31T00:35:23.014Z,63.17
2018-07-31T00:36:23.016Z,62.59
2018-07-31T00:37:23.018Z,62.69
2018-07-31T00:38:23.023Z,63.07
2018-07-31T00:39:23.032Z,63.07
2018-07-31T00:40:23.019Z,63.85
2018-07-31T00:41:23.023Z,63.95
2018-07-31T00:42:23.018Z,63.95
2018-07-31T00:43:23.017Z,63.95
2018-07-31T00:44:23.023Z,65.11
2018-07-31T00:45:23.026Z,65.50
2018-07-31T00:46:23.023Z,65.98
2018-07-31T00:47:23.023Z,65.01
2018-07-31T00:48:23.021Z,65.59
2018-07-31T00:49:23.024Z,65.89
2018-07-31T00:50:23.028Z,65.79
2018-07-31T00:51:23.024Z,66.56
2018-07-31T00:52:23.025Z,66.34
2018-07-31T00:53:23.025Z,66.82
2018-07-31T00:54:23.024Z,66.82
2018-07-31T00:55:23.026Z,66.95
2018-07-31T00:56:23.023Z,67.21
2018-07-31T00:57:23.027Z,67.88
2018-07-31T00:58:23.027Z,67.79
2018-07-31T00:59:23.031Z,67.69
2018-07-31T01:00:23.026Z,68.27
2018-07-31T01:01:23.025Z,68.37
2018-07-31T01:02:23.032Z,68.56
2018-07-31T01:03:23.024Z,68.95
2018-07-31T01:04:23.028Z,68.47
2018-07-31T01:05:23.031Z,69.05
2018-07-31T01:06:23.030Z,69.05
2018-07-31T01:07:23.028Z,68.37
2018-07-31T01:08:23.041Z,68.85
2018-07-31T01:09:23.028Z,69.63
2018-07-31T01:10:23.039Z,69.15
2018-07-31T01:11:23.030Z,69.15
2018-07-31T01:12:23.032Z,69.53
2018-07-31T01:13:23.039Z,68.85
2018-07-31T01:14:23.032Z,69.05
2018-07-31T01:15:23.032Z,69.63
2018-07-31T01:16:23.031Z,70.40
2018-07-31T01:17:23.031Z,70.21
2018-07-31T01:18:23.033Z,69.43
2018-07-31T01:19:23.029Z,70.40
2018-07-31T01:20:23.030Z,69.73
2018-07-31T01:21:23.032Z,70.40
2018-07-31T01:22:23.029Z,70.50
2018-07-31T01:23:23.041Z,70.60
2018-07-31T01:24:23.033Z,70.70
2018-07-31T01:25:23.031Z,70.47
2018-07-31T01:26:23.036Z,71.18
2018-07-31T01:27:23.034Z,71.24
2018-07-31T01:28:23.037Z,71.04
2018-07-31T01:29:23.037Z,71.53
2018-07-31T01:30:23.034Z,71.14
2018-07-31T01:31:23.035Z,71.53
2018-07-31T01:32:23.037Z,71.24
2018-07-31T01:33:23.036Z,71.53
2018-07-31T01:34:23.034Z,72.21
2018-07-31T01:35:23.036Z,71.53
2018-07-31T01:36:23.035Z,71.14
2018-07-31T01:37:23.033Z,71.82
2018-07-31T01:38:23.035Z,72.11
2018-07-31T01:39:23.033Z,71.82
2018-07-31T01:40:23.037Z,72.02
2018-07-31T01:41:23.037Z,72.60
2018-07-31T01:42:38.035Z,72.79
2018-07-31T01:43:23.036Z,72.95
2018-07-31T01:44:23.061Z,72.36
2018-07-31T01:45:23.035Z,73.24
2018-07-31T01:46:23.066Z,72.95
2018-07-31T01:47:23.044Z,73.14
2018-07-31T01:48:23.038Z,73.85
2018-07-31T01:49:23.037Z,73.24
2018-07-31T01:50:23.045Z,73.53
2018-07-31T01:51:23.045Z,73.91
2018-07-31T01:52:23.035Z,73.82
2018-07-31T01:53:23.036Z,73.72
2018-07-31T01:54:23.064Z,74.11
2018-07-31T01:55:23.039Z,74.30
2018-07-31T01:56:23.039Z,73.91
2018-07-31T01:57:23.050Z,74.30
2018-07-31T01:58:23.046Z,73.82
2018-07-31T01:59:23.054Z,74.59
2018-07-31T02:00:23.035Z,74.11
2018-07-31T02:01:23.033Z,74.30
2018-07-31T02:02:23.037Z,74.40
2018-07-31T02:03:23.036Z,74.69
2018-07-31T02:04:23.047Z,75.07
2018-07-31T02:05:23.034Z,74.88
2018-07-31T02:06:23.081Z,74.30
2018-07-31T02:07:23.037Z,75.17
2018-07-31T02:08:23.035Z,74.88
2018-07-31T02:09:23.040Z,75.65
2018-07-31T02:10:23.037Z,75.17
2018-07-31T02:11:23.037Z,75.46
2018-07-31T02:12:23.050Z,75.75
2018-07-31T02:13:23.049Z,75.95
2018-07-31T02:14:23.037Z,76.14
2018-07-31T02:15:23.031Z,76.82
2018-07-31T02:16:23.035Z,76.24
2018-07-31T02:17:23.070Z,76.62
2018-07-31T02:18:23.036Z,76.97
2018-07-31T02:19:23.044Z,76.97
2018-07-31T02:20:23.049Z,77.17
2018-07-31T02:21:23.044Z,77.59
2018-07-31T02:22:23.062Z,77.59
2018-07-31T02:23:23.043Z,77.26
2018-07-31T02:24:23.049Z,77.36
2018-07-31T02:25:23.051Z,77.26
2018-07-31T02:26:23.056Z,77.84
2018-07-31T02:27:23.065Z,78.81
2018-07-31T02:28:23.127Z,78.61
2018-07-31T02:29:23.044Z,78.61
2018-07-31T02:30:23.049Z,78.71
2018-07-31T02:31:23.033Z,79.00
2018-07-31T02:32:23.051Z,78.81
2018-07-31T02:33:23.048Z,79.29
2018-07-31T02:34:23.087Z,79.87
2018-07-31T02:35:23.045Z,79.87
2018-07-31T02:36:23.055Z,80.36
2018-07-31T02:37:23.044Z,80.16
2018-07-31T02:38:23.035Z,81.13
2018-07-31T02:39:23.035Z,80.84
2018-07-31T02:40:23.051Z,81.62
2018-07-31T02:41:23.044Z,81.52
2018-07-31T02:42:23.031Z,81.62
2018-07-31T02:43:23.046Z,82.10
2018-07-31T02:44:23.032Z,82.20
2018-07-31T02:45:23.047Z,83.06
2018-07-31T02:46:23.032Z,83.06
2018-07-31T02:47:23.047Z,82.97
2018-07-31T02:48:23.069Z,82.78
2018-07-31T02:49:23.029Z,82.58
2018-07-31T02:50:23.041Z,82.97
2018-07-31T02:51:23.031Z,83.16
2018-07-31T02:52:23.030Z,82.68
2018-07-31T02:53:23.031Z,83.84
2018-07-31T02:54:23.034Z,83.70
2018-07-31T02:55:23.027Z,84.38
2018-07-31T02:56:23.031Z,82.78
2018-07-31T02:57:23.026Z,83.99
2018-07-31T02:58:23.152Z,84.38
2018-07-31T02:59:23.029Z,84.19
2018-07-31T03:00:23.029Z,84.77
2018-07-31T03:01:23.028Z,85.53
2018-07-31T03:02:23.048Z,85.35
2018-07-31T03:03:23.028Z,84.95
2018-07-31T03:04:23.059Z,85.15
2018-07-31T03:05:23.031Z,86.69
2018-07-31T03:06:23.054Z,86.51
2018-07-31T03:07:23.049Z,85.73
2018-07-31T03:08:23.044Z,86.60
2018-07-31T03:09:23.048Z,85.73
2018-07-31T03:10:23.025Z,86.31
2018-07-31T03:11:23.028Z,87.33
2018-07-31T03:12:23.047Z,87.08
2018-07-31T03:13:23.026Z,86.89
2018-07-31T03:14:23.029Z,87.47
2018-07-31T03:15:23.027Z,86.65
2018-07-31T03:16:23.027Z,87.27
2018-07-31T03:17:23.035Z,87.62
2018-07-31T03:18:23.027Z,87.91
2018-07-31T03:19:23.022Z,87.71
2018-07-31T03:20:23.021Z,87.81
2018-07-31T03:21:23.028Z,87.52
2018-07-31T03:22:23.029Z,87.81
2018-07-31T03:23:23.022Z,87.04
2018-07-31T03:24:23.020Z,87.71
2018-07-31T03:25:23.021Z,87.71
2018-07-31T03:26:23.021Z,87.43
2018-07-31T03:27:23.020Z,87.71
2018-07-31T03:28:23.051Z,87.81
2018-07-31T03:29:23.020Z,87.81
2018-07-31T03:30:23.020Z,88.68
2018-07-31T03:31:23.027Z,88.29
2018-07-31T03:32:23.020Z,88.20
2018-07-31T03:33:23.017Z,88.29
2018-07-31T03:34:23.022Z,87.81
2018-07-31T03:35:23.058Z,87.91
2018-07-31T03:36:23.020Z,86.85
2018-07-31T03:37:23.021Z,88.68
2018-07-31T03:38:23.017Z,88.68
2018-07-31T03:39:23.018Z,88.68
2018-07-31T03:40:23.013Z,87.81
2018-07-31T03:41:23.016Z,88.59
2018-07-31T03:42:23.017Z,88.49
2018-07-31T03:43:23.012Z,88.68
2018-07-31T03:44:23.014Z,88.49
2018-07-31T03:45:23.014Z,89.36
2018-07-31T03:46:23.011Z,88.68
2018-07-31T03:47:23.032Z,89.84
2018-07-31T03:48:23.010Z,89.36
2018-07-31T03:49:23.017Z,90.33
2018-07-31T03:50:23.013Z,89.55
2018-07-31T03:51:23.012Z,89.61
2018-07-31T03:52:23.012Z,89.55
2018-07-31T03:53:23.008Z,89.75
2018-07-31T03:54:23.010Z,89.75
2018-07-31T03:55:23.012Z,89.94
2018-07-31T03:56:23.010Z,89.45
2018-07-31T03:57:23.006Z,90.03
2018-07-31T03:58:23.008Z,89.65
2018-07-31T03:59:23.008Z,90.13
2018-07-31T04:00:23.015Z,89.36
2018-07-31T04:01:23.004Z,89.94
2018-07-31T04:02:23.010Z,89.99
2018-07-31T04:03:23.002Z,89.94
2018-07-31T04:04:23.004Z,89.70
2018-07-31T04:05:23.030Z,90.03
2018-07-31T04:06:23.004Z,90.19
2018-07-31T04:07:22.999Z,90.09
2018-07-31T04:08:23.004Z,90.19
2018-07-31T04:09:23.001Z,90.37
2018-07-31T04:10:23.000Z,90.42
2018-07-31T04:11:23.001Z,90.52
2018-07-31T04:12:22.999Z,90.47
2018-07-31T04:13:23.000Z,90.95
2018-07-31T04:14:23.002Z,89.99
2018-07-31T04:15:22.998Z,90.47
2018-07-31T04:16:22.996Z,90.37
2018-07-31T04:17:23.000Z,90.28
2018-07-31T04:18:22.997Z,90.28
2018-07-31T04:19:22.997Z,90.19
2018-07-31T04:20:22.997Z,89.70
2018-07-31T04:21:22.999Z,90.19
2018-07-31T04:22:22.992Z,90.57
2018-07-31T04:23:22.993Z,90.37
2018-07-31T04:24:22.990Z,90.09
2018-07-31T04:25:23.003Z,89.99
2018-07-31T04:26:22.994Z,89.61
2018-07-31T04:27:22.994Z,89.79
2018-07-31T04:28:22.995Z,89.61
2018-07-31T04:29:22.991Z,89.84
2018-07-31T04:30:22.990Z,89.41
2018-07-31T04:31:22.992Z,89.79
2018-07-31T04:32:22.992Z,89.84
2018-07-31T04:33:22.990Z,90.42
2018-07-31T04:34:22.992Z,89.55
2018-07-31T04:35:22.990Z,90.19
2018-07-31T04:36:22.986Z,90.28
2018-07-31T04:37:22.988Z,89.99
2018-07-31T04:38:22.985Z,90.28
2018-07-31T04:39:22.982Z,90.19
2018-07-31T04:40:22.987Z,91.05
2018-07-31T04:41:22.990Z,90.19
2018-07-31T04:42:23.078Z,89.99
2018-07-31T04:43:22.981Z,90.57
2018-07-31T04:44:22.982Z,89.79
2018-07-31T04:45:22.982Z,90.28
2018-07-31T04:46:22.987Z,90.28
2018-07-31T04:47:22.982Z,89.17
2018-07-31T04:48:22.985Z,90.28
2018-07-31T04:49:22.981Z,90.03
2018-07-31T04:50:23.006Z,89.26
2018-07-31T04:51:22.977Z,89.03
2018-07-31T04:52:22.978Z,89.55
2018-07-31T04:53:22.977Z,89.84
2018-07-31T04:54:22.981Z,89.99
2018-07-31T04:55:22.979Z,89.75
2018-07-31T04:56:22.979Z,88.87
2018-07-31T04:57:22.979Z,89.07
2018-07-31T04:58:22.974Z,89.55
2018-07-31T04:59:22.976Z,89.26
2018-07-31T05:00:22.977Z,88.97
2018-07-31T05:01:22.979Z,88.87
2018-07-31T05:02:22.975Z,89.36
2018-07-31T05:03:22.975Z,88.78
2018-07-31T05:04:23.020Z,87.71
2018-07-31T05:05:22.973Z,89.07
2018-07-31T05:06:22.973Z,88.49
2018-07-31T05:07:22.974Z,87.33
2018-07-31T05:08:22.972Z,87.57
2018-07-31T05:09:22.975Z,87.47
2018-07-31T05:10:22.976Z,87.08
2018-07-31T05:11:22.972Z,87.37
2018-07-31T05:12:22.969Z,87.57
2018-07-31T05:13:22.971Z,86.89
2018-07-31T05:14:23.033Z,86.45
2018-07-31T05:15:22.972Z,86.93
2018-07-31T05:16:22.979Z,86.65
2018-07-31T05:17:22.975Z,86.74
2018-07-31T05:18:23.001Z,85.87
2018-07-31T05:19:22.977Z,85.10
2018-07-31T05:20:22.974Z,85.39
2018-07-31T05:21:22.976Z,85.72
2018-07-31T05:22:22.976Z,85.62
2018-07-31T05:23:22.976Z,84.46
2018-07-31T05:24:22.979Z,84.36
2018-07-31T05:25:23.108Z,84.56
2018-07-31T05:26:22.978Z,84.08
2018-07-31T05:27:22.977Z,84.46
2018-07-31T05:28:22.984Z,84.11
2018-07-31T05:29:22.984Z,83.83
2018-07-31T05:30:22.996Z,83.25
2018-07-31T05:31:22.986Z,82.76
2018-07-31T05:32:23.046Z,83.05
2018-07-31T05:33:22.988Z,82.37
2018-07-31T05:34:22.988Z,82.57
2018-07-31T05:35:22.989Z,82.12
2018-07-31T05:36:22.993Z,82.22
2018-07-31T05:37:22.996Z,82.41
2018-07-31T05:38:22.999Z,82.03
2018-07-31T05:39:23.004Z,81.54
2018-07-31T05:40:23.002Z,81.10
2018-07-31T05:41:23.001Z,80.90
2018-07-31T05:42:23.001Z,81.39
2018-07-31T05:43:23.002Z,79.97
2018-07-31T05:44:23.007Z,79.88
2018-07-31T05:45:23.018Z,79.78
2018-07-31T05:46:23.015Z,79.00
2018-07-31T05:47:23.014Z,79.20
2018-07-31T05:48:23.018Z,78.81
2018-07-31T05:49:23.020Z,78.75
2018-07-31T05:50:23.021Z,78.46
2018-07-31T05:51:23.057Z,78.27
2018-07-31T05:52:23.034Z,76.72
2018-07-31T05:53:23.034Z,77.29
2018-07-31T05:54:23.035Z,77.39
2018-07-31T05:55:23.035Z,77.01
2018-07-31T05:56:23.042Z,77.34
2018-07-31T05:57:23.088Z,77.04
2018-07-31T05:58:23.048Z,76.37
2018-07-31T05:59:23.052Z,75.98
2018-07-31T06:00:23.054Z,75.98
2018-07-31T06:01:23.062Z,75.98
2018-07-31T06:02:23.061Z,76.31
2018-07-31T06:03:23.065Z,76.27
2018-07-31T06:04:23.070Z,76.07
2018-07-31T06:05:23.069Z,76.07
2018-07-31T06:06:23.075Z,76.17
2018-07-31T06:07:23.084Z,76.07
2018-07-31T06:08:23.088Z,75.24
2018-07-31T06:09:23.097Z,74.56
2018-07-31T06:10:23.090Z,74.60
2018-07-31T06:11:23.148Z,74.21
2018-07-31T06:12:23.098Z,74.50
2018-07-31T06:13:23.113Z,73.18
2018-07-31T06:14:23.107Z,72.98
2018-07-31T06:15:23.171Z,73.18
2018-07-31T06:16:23.462Z,73.18
2018-07-31T06:17:23.419Z,72.39
2018-07-31T06:18:23.937Z,72.39
2018-07-31T06:19:23.570Z,72.30
2018-07-31T06:20:23.442Z,72.04
2018-07-31T06:21:23.211Z,71.85
2018-07-31T06:22:23.294Z,71.75
2018-07-31T06:23:23.703Z,71.07
2018-07-31T06:24:23.358Z,70.91
2018-07-31T06:25:23.174Z,70.62
2018-07-31T06:26:23.159Z,70.13
2018-07-31T06:27:23.186Z,70.49
2018-07-31T06:28:23.187Z,70.78
2018-07-31T06:29:23.226Z,70.58
2018-07-31T06:30:23.176Z,71.17
2018-07-31T06:31:31.152Z,71.07
2018-07-31T06:33:17.285Z,71.81
2018-07-31T06:34:16.886Z,71.62
2018-07-31T06:36:10.659Z,71.94
2018-07-31T06:37:10.611Z,71.20
2018-07-31T06:39:05.413Z,71.07
2018-07-31T06:40:05.384Z,70.23
2018-07-31T06:41:06.239Z,69.45
2018-07-31T06:42:05.361Z,69.29
2018-07-31T06:43:05.367Z,69.00
2018-07-31T06:44:05.391Z,68.87
2018-07-31T06:45:05.381Z,69.10
2018-07-31T06:46:05.392Z,69.10
2018-07-31T06:47:05.386Z,68.90
2018-07-31T06:48:09.872Z,67.83
2018-07-31T06:49:05.405Z,68.61
2018-07-31T06:50:05.407Z,68.22
2018-07-31T06:51:05.407Z,69.10
2018-07-31T06:52:05.418Z,68.12
2018-07-31T06:53:05.424Z,68.06
2018-07-31T06:54:05.419Z,67.86
2018-07-31T06:55:05.428Z,66.53
2018-07-31T06:56:05.427Z,66.41
2018-07-31T06:57:05.435Z,66.24
2018-07-31T06:58:05.438Z,65.46
2018-07-31T06:59:05.445Z,64.72
2018-07-31T07:00:05.458Z,65.50
2018-07-31T07:01:05.451Z,65.30
2018-07-31T07:02:05.492Z,64.87
2018-07-31T07:03:05.461Z,64.39
2018-07-31T07:04:06.507Z,64.75
2018-07-31T07:05:05.477Z,65.53
2018-07-31T07:06:05.481Z,65.88
2018-07-31T07:07:05.485Z,65.69
2018-07-31T07:08:05.497Z,65.59
2018-07-31T07:09:05.505Z,66.47
2018-07-31T07:10:05.527Z,67.54
2018-07-31T07:11:05.544Z,65.98
2018-07-31T07:12:05.516Z,67.21
2018-07-31T07:13:05.528Z,68.48
2018-07-31T07:14:05.524Z,68.41
2018-07-31T07:15:05.533Z,68.35
2018-07-31T07:16:05.534Z,66.53
2018-07-31T07:17:05.540Z,65.85
2018-07-31T07:18:05.549Z,65.01
2018-07-31T07:19:05.561Z,63.64
2018-07-31T07:20:05.581Z,63.93
2018-07-31T07:21:05.565Z,63.84
2018-07-31T07:22:05.570Z,63.57
2018-07-31T07:23:05.575Z,62.12
2018-07-31T07:24:05.582Z,61.56
2018-07-31T07:25:05.593Z,62.08
2018-07-31T07:26:05.603Z,62.47
2018-07-31T07:27:05.602Z,58.98
2018-07-31T07:28:05.609Z,59.79
2018-07-31T07:29:05.619Z,57.84
2018-07-31T07:30:05.623Z,57.74
2018-07-31T07:31:05.629Z,57.64
2018-07-31T07:32:05.636Z,57.06
2018-07-31T07:33:05.647Z,57.54
2018-07-31T07:34:05.657Z,56.67
2018-07-31T07:35:05.659Z,56.67
2018-07-31T07:36:05.664Z,57.54
2018-07-31T07:37:05.668Z,58.62
2018-07-31T07:38:05.676Z,57.93
2018-07-31T07:39:05.683Z,57.15
2018-07-31T07:40:05.699Z,57.32
2018-07-31T07:41:05.702Z,57.71
2018-07-31T07:42:05.703Z,58.40
2018-07-31T07:43:05.745Z,59.25
2018-07-31T07:44:05.718Z,59.25
2018-07-31T07:45:05.722Z,60.03
2018-07-31T07:46:05.731Z,59.08
2018-07-31T07:47:05.741Z,60.16
2018-07-31T07:48:05.742Z,59.40
2018-07-31T07:49:05.745Z,57.45
2018-07-31T07:50:05.756Z,57.38
2018-07-31T07:51:05.766Z,56.30
2018-07-31T07:52:05.765Z,57.18
2018-07-31T07:53:05.772Z,57.21
2018-07-31T07:54:05.874Z,55.84
2018-07-31T07:55:05.784Z,54.40
2018-07-31T07:56:05.792Z,54.21
2018-07-31T07:57:05.801Z,53.62
2018-07-31T07:58:05.812Z,53.42
2018-07-31T07:59:05.819Z,53.35
2018-07-31T08:00:05.831Z,53.25
2018-07-31T08:01:05.842Z,53.42
2018-07-31T08:02:05.841Z,53.64
2018-07-31T08:03:05.849Z,52.86
2018-07-31T08:04:05.935Z,52.17
2018-07-31T08:05:05.854Z,51.27
2018-07-31T08:06:05.913Z,52.34
2018-07-31T08:07:06.614Z,53.10
2018-07-31T08:08:06.612Z,54.05
2018-07-31T08:09:05.884Z,54.35
2018-07-31T08:10:05.892Z,55.81
2018-07-31T08:11:05.898Z,54.93
2018-07-31T08:12:05.905Z,55.03
2018-07-31T08:13:05.911Z,55.49
2018-07-31T08:14:05.918Z,55.00
2018-07-31T08:15:05.945Z,56.99
2018-07-31T08:16:05.932Z,56.13
2018-07-31T08:17:05.940Z,54.17
2018-07-31T08:18:05.945Z,55.67
2018-07-31T08:19:05.955Z,55.18
2018-07-31T08:20:05.960Z,52.73
2018-07-31T08:21:05.968Z,51.29
2018-07-31T08:22:05.975Z,52.25
2018-07-31T08:23:05.979Z,52.47
2018-07-31T08:24:05.989Z,52.27
2018-07-31T08:25:05.999Z,51.49
2018-07-31T08:26:06.005Z,52.25
2018-07-31T08:27:06.628Z,53.62
2018-07-31T08:28:06.013Z,52.86
2018-07-31T08:29:06.022Z,52.20
2018-07-31T08:30:06.033Z,50.66
2018-07-31T08:31:06.040Z,51.25
2018-07-31T08:32:06.043Z,51.64
2018-07-31T08:33:06.065Z,49.80
2018-07-31T08:34:06.061Z,50.49
2018-07-31T08:35:06.068Z,49.87
2018-07-31T08:36:06.074Z,50.07
2018-07-31T08:37:06.082Z,50.29
2018-07-31T08:38:06.088Z,49.33
2018-07-31T08:39:06.099Z,50.32
2018-07-31T08:40:06.108Z,50.02
2018-07-31T08:41:06.115Z,48.74
2018-07-31T08:42:06.127Z,47.96
2018-07-31T08:43:06.129Z,48.16
2018-07-31T08:44:06.148Z,49.07
2018-07-31T08:45:06.147Z,49.16
2018-07-31T08:46:06.156Z,47.30
2018-07-31T08:47:06.163Z,46.12
2018-07-31T08:48:06.168Z,47.17
2018-07-31T08:49:06.174Z,48.35
2018-07-31T08:50:06.196Z,48.85
2018-07-31T08:51:06.247Z,47.30
2018-07-31T08:52:06.229Z,46.17
2018-07-31T08:53:06.227Z,45.77
2018-07-31T08:54:06.228Z,46.26
2018-07-31T08:55:06.241Z,44.98
2018-07-31T08:56:06.242Z,46.06
2018-07-31T08:57:06.250Z,45.09
2018-07-31T08:58:06.261Z,45.09
2018-07-31T08:59:06.325Z,45.89
2018-07-31T09:00:06.279Z,45.32
2018-07-31T09:01:06.289Z,44.17
2018-07-31T09:02:06.299Z,43.50
2018-07-31T09:03:06.307Z,42.47
2018-07-31T09:04:06.337Z,44.02
2018-07-31T09:05:06.324Z,45.77
2018-07-31T09:06:06.343Z,45.28
2018-07-31T09:07:06.349Z,45.97
2018-07-31T09:08:06.376Z,44.46
2018-07-31T09:09:06.369Z,43.70
2018-07-31T09:10:06.375Z,42.52
2018-07-31T09:11:06.397Z,41.93
2018-07-31T09:12:06.401Z,42.61
2018-07-31T09:13:06.450Z,45.96
2018-07-31T09:14:06.419Z,42.81
2018-07-31T09:15:06.433Z,42.22
2018-07-31T09:16:06.453Z,42.73
2018-07-31T09:17:06.479Z,41.25
2018-07-31T09:18:06.459Z,40.35
2018-07-31T09:19:06.470Z,41.71
2018-07-31T09:20:06.549Z,42.79
2018-07-31T09:21:06.494Z,42.47
2018-07-31T09:22:06.503Z,42.67
2018-07-31T09:23:06.518Z,42.38
2018-07-31T09:24:06.523Z,42.45
2018-07-31T09:25:06.536Z,44.10
2018-07-31T09:26:06.544Z,44.59
2018-07-31T09:27:06.559Z,45.57
2018-07-31T09:28:06.570Z,43.10
2018-07-31T09:29:06.574Z,44.47
2018-07-31T09:30:06.586Z,43.59
2018-07-31T09:31:06.727Z,43.19
2018-07-31T09:32:06.603Z,42.80
2018-07-31T09:33:06.611Z,42.90
2018-07-31T09:34:06.620Z,44.06
2018-07-31T09:35:06.630Z,44.55
2018-07-31T09:36:06.638Z,43.18
2018-07-31T09:37:06.650Z,43.86
2018-07-31T09:38:06.719Z,42.98
2018-07-31T09:39:06.662Z,44.06
2018-07-31T09:40:06.695Z,43.76
2018-07-31T09:41:06.689Z,43.37
2018-07-31T09:42:06.690Z,43.08
2018-07-31T09:43:06.709Z,43.27
2018-07-31T09:44:06.711Z,42.49
2018-07-31T09:45:06.716Z,43.27
2018-07-31T09:46:06.726Z,43.26
2018-07-31T09:47:07.040Z,43.96
2018-07-31T09:48:06.747Z,44.16
2018-07-31T09:49:06.750Z,43.10
2018-07-31T09:50:06.766Z,43.00
2018-07-31T09:51:06.766Z,42.24
2018-07-31T09:52:06.773Z,41.72
2018-07-31T09:53:06.779Z,42.21
2018-07-31T09:54:06.788Z,42.79
2018-07-31T09:55:06.794Z,42.49
2018-07-31T09:56:06.832Z,42.90
2018-07-31T09:57:06.858Z,42.61
2018-07-31T09:58:06.861Z,43.49
2018-07-31T09:59:06.851Z,43.00
2018-07-31T10:00:06.845Z,42.80
2018-07-31T10:01:06.840Z,41.63
2018-07-31T10:02:06.853Z,41.94
2018-07-31T10:03:06.868Z,42.33
2018-07-31T10:04:06.863Z,40.76
2018-07-31T10:05:06.920Z,41.45
2018-07-31T10:06:06.897Z,41.35
2018-07-31T10:07:06.892Z,40.31
2018-07-31T10:08:07.690Z,39.54
2018-07-31T10:09:06.899Z,39.66
2018-07-31T10:10:06.927Z,38.89
2018-07-31T10:11:06.913Z,39.11
2018-07-31T10:12:06.942Z,37.85
2018-07-31T10:13:06.954Z,37.27
2018-07-31T10:14:06.947Z,37.76
2018-07-31T10:15:06.952Z,36.60
2018-07-31T10:16:06.962Z,36.11
2018-07-31T10:17:06.967Z,34.71
2018-07-31T10:18:07.026Z,36.07
2018-07-31T10:19:06.987Z,37.05
2018-07-31T10:20:06.998Z,35.18
2018-07-31T10:21:07.024Z,35.27
2018-07-31T10:22:07.010Z,36.04
2018-07-31T10:23:07.023Z,36.59
2018-07-31T10:24:07.091Z,37.55
2018-07-31T10:25:07.040Z,37.95
2018-07-31T10:26:07.065Z,37.84
2018-07-31T10:27:07.060Z,38.23
2018-07-31T10:28:07.067Z,38.01
2018-07-31T10:29:07.080Z,39.48
2018-07-31T10:30:07.087Z,39.58
2018-07-31T10:31:07.102Z,38.23
2018-07-31T10:32:07.103Z,37.84
2018-07-31T10:33:07.112Z,37.74
2018-07-31T10:34:07.116Z,37.85
2018-07-31T10:35:07.127Z,37.77
2018-07-31T10:36:07.136Z,37.69
2018-07-31T10:37:07.141Z,36.43
2018-07-31T10:38:07.157Z,36.53
2018-07-31T10:39:07.158Z,36.04
2018-07-31T10:40:07.173Z,36.92
2018-07-31T10:41:07.180Z,36.02
2018-07-31T10:42:07.193Z,36.02
2018-07-31T10:43:07.193Z,37.22
2018-07-31T10:44:07.309Z,36.92
2018-07-31T10:45:07.212Z,36.63
2018-07-31T10:46:07.233Z,36.35
2018-07-31T10:47:07.229Z,35.76
2018-07-31T10:48:07.238Z,35.46
2018-07-31T10:49:07.261Z,36.05
2018-07-31T10:50:07.255Z,35.56
2018-07-31T10:51:07.317Z,35.35
2018-07-31T10:52:07.271Z,36.11
2018-07-31T10:53:07.282Z,37.30
2018-07-31T10:54:07.318Z,36.90
2018-07-31T10:55:07.329Z,36.49
2018-07-31T10:56:07.323Z,36.77
2018-07-31T10:57:07.322Z,37.65
2018-07-31T10:58:07.391Z,37.76
2018-07-31T10:59:07.348Z,37.36
2018-07-31T11:00:07.419Z,37.84
2018-07-31T11:01:07.352Z,37.93
2018-07-31T11:02:07.355Z,37.74
2018-07-31T11:03:07.474Z,37.74
2018-07-31T11:04:07.420Z,38.05
2018-07-31T11:05:07.376Z,37.65
2018-07-31T11:06:07.436Z,37.85
2018-07-31T11:07:07.394Z,37.46
2018-07-31T11:08:07.400Z,37.07
2018-07-31T11:09:07.408Z,37.36
2018-07-31T11:10:07.418Z,37.46
2018-07-31T11:11:07.426Z,37.16
2018-07-31T11:12:07.426Z,37.85
2018-07-31T11:13:07.478Z,37.76
2018-07-31T11:14:07.445Z,37.65
2018-07-31T11:15:07.459Z,37.85
2018-07-31T11:16:08.236Z,37.85
2018-07-31T11:17:07.467Z,37.76
2018-07-31T11:18:07.471Z,37.18
2018-07-31T11:19:07.480Z,38.05
2018-07-31T11:20:07.484Z,38.17
2018-07-31T11:21:07.578Z,37.28
2018-07-31T11:22:07.503Z,37.97
2018-07-31T11:23:07.508Z,37.57
2018-07-31T11:24:07.518Z,36.88
2018-07-31T11:25:07.522Z,37.67
2018-07-31T11:26:07.528Z,38.24
2018-07-31T11:27:07.635Z,38.24
2018-07-31T11:28:07.544Z,38.36
2018-07-31T11:29:07.548Z,38.17
2018-07-31T11:30:07.564Z,37.28
2018-07-31T11:31:07.570Z,38.15
2018-07-31T11:32:07.573Z,38.34
2018-07-31T11:33:07.587Z,38.34
2018-07-31T11:34:07.597Z,38.26
2018-07-31T11:35:07.596Z,37.08
2018-07-31T11:36:07.607Z,37.67
2018-07-31T11:37:07.616Z,37.59
2018-07-31T11:38:07.643Z,37.51
2018-07-31T11:39:07.651Z,36.72
2018-07-31T11:40:07.643Z,35.64
2018-07-31T11:41:07.649Z,36.23
2018-07-31T11:42:07.699Z,36.13
2018-07-31T11:43:07.664Z,36.43
2018-07-31T11:44:07.699Z,33.97
2018-07-31T11:45:07.692Z,34.56
2018-07-31T11:46:07.690Z,33.31
2018-07-31T11:47:07.711Z,32.04
2018-07-31T11:48:07.728Z,32.14
2018-07-31T11:49:07.730Z,32.24
2018-07-31T11:50:07.798Z,32.13
2018-07-31T11:51:07.741Z,32.80
2018-07-31T11:52:07.747Z,32.70
2018-07-31T11:53:07.760Z,33.61
2018-07-31T11:54:07.766Z,33.22
2018-07-31T11:55:07.797Z,33.61
2018-07-31T11:56:07.788Z,31.85
2018-07-31T11:57:07.800Z,32.16
2018-07-31T11:58:07.832Z,31.38
2018-07-31T11:59:07.819Z,30.40
2018-07-31T12:00:07.847Z,30.60
2018-07-31T12:01:07.847Z,29.80
2018-07-31T12:02:07.861Z,30.30
2018-07-31T12:03:07.887Z,29.92
2018-07-31T12:04:07.875Z,29.13
2018-07-31T12:05:07.887Z,29.72
2018-07-31T12:06:07.897Z,28.93
2018-07-31T12:07:07.909Z,29.60
2018-07-31T12:08:07.916Z,30.47
2018-07-31T12:09:07.960Z,30.96
2018-07-31T12:10:07.947Z,31.07
2018-07-31T12:11:07.944Z,30.19
2018-07-31T12:12:07.958Z,29.60
2018-07-31T12:13:07.987Z,29.79
2018-07-31T12:14:07.980Z,30.88
2018-07-31T12:15:07.985Z,30.20
2018-07-31T12:16:08.023Z,30.30
2018-07-31T12:17:08.011Z,30.60
2018-07-31T12:18:08.021Z,29.72
2018-07-31T12:19:08.145Z,29.62
2018-07-31T12:20:08.046Z,29.33
2018-07-31T12:21:08.055Z,29.23
2018-07-31T12:22:08.064Z,29.44
2018-07-31T12:23:08.075Z,29.52
2018-07-31T12:24:08.120Z,29.13
2018-07-31T12:25:08.149Z,29.41
2018-07-31T12:26:08.121Z,29.51
2018-07-31T12:27:08.156Z,30.38
2018-07-31T12:28:08.140Z,30.47
2018-07-31T12:29:08.157Z,30.65
2018-07-31T12:30:08.169Z,31.52
2018-07-31T12:31:14.789Z,31.72
2018-07-31T12:32:08.178Z,31.80
2018-07-31T12:33:08.237Z,32.59
2018-07-31T12:34:08.189Z,32.70
2018-07-31T12:35:08.209Z,31.73
2018-07-31T12:36:08.227Z,32.03
2018-07-31T12:37:08.214Z,31.44
2018-07-31T12:38:08.312Z,31.63
2018-07-31T12:39:08.260Z,30.96
2018-07-31T12:40:08.241Z,30.86
2018-07-31T12:41:08.250Z,31.75
2018-07-31T12:42:08.256Z,31.06
2018-07-31T12:43:08.267Z,31.73
2018-07-31T12:44:08.342Z,31.73
2018-07-31T12:45:08.286Z,32.23
2018-07-31T12:46:08.296Z,31.92
2018-07-31T12:47:08.306Z,32.10
2018-07-31T12:48:08.309Z,33.10
2018-07-31T12:49:08.322Z,32.80
2018-07-31T12:50:08.390Z,33.38
2018-07-31T12:51:08.357Z,33.48
2018-07-31T12:52:08.343Z,33.20
2018-07-31T12:53:08.348Z,33.20
2018-07-31T12:54:08.357Z,32.70
2018-07-31T12:55:09.303Z,32.52